CKS261 RJGG-KCVG
Flight info
| Callsign | CKS261 |
|---|---|
| Flight time | N/A |
| Altitude | 33000 |
| Route | CBE MORIZ TSUGU CHAUS TENRU Y88 DAIGO Y889 PUTER A590 POWAL R330 SYA DCT DRAPP DCT 56N170W 57N160W DCT CJAYY DCT 57N140W 56N130W 5430N12000W 5230N11000W 49N100W DCT GFK DCT GEP J36 ODI DCT BRIBE J30 COTON DCT ZABNU CEGRM8 |
| Aircraft | B77L/H-SDE1E2E3FGHIJ2J3J4J5M1RWXY/LB1D1 |
Departure
| Time | N/A |
|---|---|
| Airport | Chubu Centrair International Airport (RJGG) |
Arrival
| Time | 2026-05-04 19:57 |
|---|---|
| Airport | Cincinnati Northern Kentucky International Airport (KCVG) |
| Time | Latitude | Longitude | Altitude | Speed | Heading |
|---|---|---|---|---|---|
| 2026-05-04 19:20 | 41.48271 | -88.16003 | 32646 ft | 491 kts | 119° |
| 2026-05-04 19:21 | 41.46662 | -88.11996 | 32648 ft | 490 kts | 119° |
| 2026-05-04 19:21 | 41.43444 | -88.04011 | 32648 ft | 491 kts | 119° |
| 2026-05-04 19:22 | 41.40205 | -87.96000 | 32655 ft | 489 kts | 119° |
| 2026-05-04 19:22 | 41.36978 | -87.88049 | 32657 ft | 489 kts | 119° |
| 2026-05-04 19:23 | 41.33754 | -87.80126 | 32673 ft | 489 kts | 119° |
| 2026-05-04 19:23 | 41.30506 | -87.72171 | 32671 ft | 489 kts | 119° |
| 2026-05-04 19:24 | 41.27256 | -87.64230 | 32678 ft | 488 kts | 119° |
| 2026-05-04 19:24 | 41.24015 | -87.56332 | 32679 ft | 487 kts | 119° |
| 2026-05-04 19:25 | 41.20746 | -87.48387 | 32679 ft | 488 kts | 120° |
| 2026-05-04 19:25 | 41.16718 | -87.41290 | 32674 ft | 482 kts | 138° |
| 2026-05-04 19:26 | 41.11294 | -87.36247 | 32682 ft | 473 kts | 157° |
| 2026-05-04 19:26 | 41.05225 | -87.32840 | 32679 ft | 472 kts | 161° |
| 2026-05-04 19:27 | 40.99149 | -87.29594 | 32685 ft | 472 kts | 161° |
| 2026-05-04 19:27 | 40.93079 | -87.26386 | 32697 ft | 472 kts | 161° |
| 2026-05-04 19:28 | 40.86977 | -87.23185 | 32699 ft | 471 kts | 161° |
| 2026-05-04 19:28 | 40.80858 | -87.19990 | 32694 ft | 470 kts | 162° |
| 2026-05-04 19:29 | 40.74784 | -87.16834 | 32698 ft | 470 kts | 162° |
| 2026-05-04 19:29 | 40.68730 | -87.13700 | 32703 ft | 470 kts | 162° |
| 2026-05-04 19:30 | 40.62618 | -87.10544 | 32712 ft | 471 kts | 162° |
| 2026-05-04 19:30 | 40.56530 | -87.07404 | 32516 ft | 465 kts | 162° |
| 2026-05-04 19:30 | 40.53520 | -87.05784 | 31518 ft | 475 kts | 158° |
| 2026-05-04 19:31 | 40.50483 | -87.03858 | 30181 ft | 490 kts | 156° |
| 2026-05-04 19:31 | 40.47409 | -87.01877 | 29110 ft | 495 kts | 157° |
| 2026-05-04 19:31 | 40.44364 | -86.99922 | 28871 ft | 482 kts | 157° |
| 2026-05-04 19:31 | 40.41414 | -86.98035 | 28863 ft | 465 kts | 157° |
| 2026-05-04 19:32 | 40.38562 | -86.96219 | 28852 ft | 449 kts | 157° |
| 2026-05-04 19:32 | 40.35778 | -86.94452 | 28838 ft | 436 kts | 158° |
| 2026-05-04 19:32 | 40.32995 | -86.92698 | 28777 ft | 457 kts | 158° |
| 2026-05-04 19:32 | 40.30866 | -86.91361 | 28507 ft | 464 kts | 158° |
| 2026-05-04 19:33 | 40.29436 | -86.90461 | 28224 ft | 464 kts | 157° |
| 2026-05-04 19:33 | 40.26525 | -86.88630 | 27697 ft | 460 kts | 157° |
| 2026-05-04 19:33 | 40.23678 | -86.86842 | 27186 ft | 456 kts | 157° |
| 2026-05-04 19:33 | 40.20825 | -86.85053 | 26650 ft | 452 kts | 157° |
| 2026-05-04 19:34 | 40.18022 | -86.83298 | 26116 ft | 448 kts | 157° |
| 2026-05-04 19:34 | 40.15217 | -86.81544 | 25587 ft | 444 kts | 158° |
| 2026-05-04 19:34 | 40.12440 | -86.79810 | 25052 ft | 440 kts | 158° |
| 2026-05-04 19:34 | 40.09709 | -86.78107 | 24509 ft | 436 kts | 158° |
| 2026-05-04 19:35 | 40.07004 | -86.76421 | 23991 ft | 431 kts | 158° |
| 2026-05-04 19:35 | 40.04289 | -86.74724 | 23464 ft | 428 kts | 157° |
| 2026-05-04 19:35 | 40.01763 | -86.72708 | 22950 ft | 429 kts | 146° |
| 2026-05-04 19:35 | 39.99533 | -86.70124 | 22456 ft | 429 kts | 135° |
| 2026-05-04 19:36 | 39.97691 | -86.67100 | 22200 ft | 431 kts | 128° |
| 2026-05-04 19:36 | 39.95963 | -86.63892 | 21937 ft | 433 kts | 127° |
| 2026-05-04 19:36 | 39.94250 | -86.60674 | 21648 ft | 431 kts | 127° |
| 2026-05-04 19:36 | 39.92550 | -86.57479 | 21344 ft | 429 kts | 127° |
| 2026-05-04 19:37 | 39.90863 | -86.54306 | 21047 ft | 427 kts | 127° |
| 2026-05-04 19:37 | 39.89178 | -86.51138 | 20766 ft | 426 kts | 127° |
| 2026-05-04 19:37 | 39.87507 | -86.47998 | 20492 ft | 426 kts | 127° |
| 2026-05-04 19:37 | 39.85812 | -86.44816 | 20162 ft | 424 kts | 127° |
| 2026-05-04 19:38 | 39.84145 | -86.41685 | 19842 ft | 422 kts | 127° |
| 2026-05-04 19:38 | 39.82471 | -86.38547 | 19538 ft | 421 kts | 127° |
| 2026-05-04 19:38 | 39.80982 | -86.35262 | 19242 ft | 422 kts | 117° |
| 2026-05-04 19:38 | 39.79758 | -86.31799 | 18933 ft | 423 kts | 116° |
| 2026-05-04 19:39 | 39.78553 | -86.28297 | 18627 ft | 422 kts | 116° |
| 2026-05-04 19:39 | 39.77362 | -86.24838 | 18320 ft | 420 kts | 116° |
| 2026-05-04 19:39 | 39.76173 | -86.21387 | 18030 ft | 418 kts | 116° |
| 2026-05-04 19:39 | 39.74983 | -86.17943 | 17731 ft | 417 kts | 116° |
| 2026-05-04 19:40 | 39.73813 | -86.14562 | 17487 ft | 415 kts | 116° |
| 2026-05-04 19:40 | 39.72627 | -86.11140 | 17240 ft | 413 kts | 116° |
| 2026-05-04 19:40 | 39.71445 | -86.07732 | 16952 ft | 412 kts | 116° |
| 2026-05-04 19:40 | 39.70279 | -86.04377 | 16664 ft | 409 kts | 116° |
| 2026-05-04 19:41 | 39.69118 | -86.01038 | 16384 ft | 408 kts | 116° |
| 2026-05-04 19:41 | 39.67944 | -85.97669 | 16091 ft | 407 kts | 116° |
| 2026-05-04 19:41 | 39.66785 | -85.94344 | 15803 ft | 406 kts | 116° |
| 2026-05-04 19:41 | 39.65618 | -85.91000 | 15515 ft | 404 kts | 116° |
| 2026-05-04 19:42 | 39.64473 | -85.87725 | 15234 ft | 402 kts | 116° |
| 2026-05-04 19:42 | 39.63316 | -85.84418 | 15082 ft | 399 kts | 116° |
| 2026-05-04 19:42 | 39.62170 | -85.81147 | 15077 ft | 402 kts | 116° |
| 2026-05-04 19:42 | 39.61013 | -85.77847 | 15084 ft | 401 kts | 116° |
| 2026-05-04 19:43 | 39.59947 | -85.74528 | 15089 ft | 401 kts | 114° |
| 2026-05-04 19:43 | 39.58909 | -85.71169 | 15094 ft | 402 kts | 114° |
| 2026-05-04 19:43 | 39.57870 | -85.67818 | 15042 ft | 402 kts | 114° |
| 2026-05-04 19:43 | 39.56833 | -85.64487 | 15028 ft | 401 kts | 114° |
| 2026-05-04 19:44 | 39.55788 | -85.61145 | 15004 ft | 400 kts | 114° |
| 2026-05-04 19:44 | 39.54738 | -85.57792 | 15006 ft | 400 kts | 114° |
| 2026-05-04 19:44 | 39.53696 | -85.54478 | 15003 ft | 400 kts | 114° |
| 2026-05-04 19:44 | 39.52651 | -85.51157 | 14882 ft | 401 kts | 114° |
| 2026-05-04 19:45 | 39.51435 | -85.47944 | 14455 ft | 398 kts | 124° |
| 2026-05-04 19:45 | 39.49894 | -85.45004 | 13927 ft | 395 kts | 129° |
| 2026-05-04 19:45 | 39.48294 | -85.42095 | 13395 ft | 395 kts | 129° |
| 2026-05-04 19:45 | 39.46713 | -85.39230 | 12857 ft | 394 kts | 129° |
| 2026-05-04 19:46 | 39.45114 | -85.36334 | 12312 ft | 393 kts | 129° |
| 2026-05-04 19:46 | 39.43525 | -85.33456 | 11767 ft | 392 kts | 130° |
| 2026-05-04 19:46 | 39.41946 | -85.30602 | 11245 ft | 391 kts | 130° |
| 2026-05-04 19:46 | 39.40514 | -85.27623 | 10696 ft | 395 kts | 120° |
| 2026-05-04 19:47 | 39.39544 | -85.24355 | 10409 ft | 389 kts | 111° |
| 2026-05-04 19:47 | 39.38793 | -85.21059 | 10326 ft | 374 kts | 110° |
| 2026-05-04 19:47 | 39.38079 | -85.17876 | 10190 ft | 362 kts | 110° |
| 2026-05-04 19:47 | 39.37391 | -85.14816 | 10068 ft | 351 kts | 110° |
| 2026-05-04 19:48 | 39.36712 | -85.11800 | 9733 ft | 347 kts | 110° |
| 2026-05-04 19:48 | 39.36045 | -85.08833 | 9550 ft | 335 kts | 110° |
| 2026-05-04 19:48 | 39.35419 | -85.06046 | 9469 ft | 316 kts | 110° |
| 2026-05-04 19:48 | 39.34817 | -85.03372 | 9244 ft | 306 kts | 111° |
| 2026-05-04 19:49 | 39.34224 | -85.00749 | 8794 ft | 303 kts | 111° |
| 2026-05-04 19:49 | 39.33644 | -84.98185 | 8297 ft | 302 kts | 111° |
| 2026-05-04 19:49 | 39.33054 | -84.95576 | 7852 ft | 299 kts | 111° |
| 2026-05-04 19:49 | 39.32472 | -84.93006 | 7378 ft | 297 kts | 112° |
| 2026-05-04 19:50 | 39.31727 | -84.90566 | 6886 ft | 292 kts | 121° |
| 2026-05-04 19:50 | 39.30848 | -84.88215 | 6515 ft | 292 kts | 122° |
| 2026-05-04 19:50 | 39.29965 | -84.85887 | 6205 ft | 289 kts | 122° |
| 2026-05-04 19:50 | 39.29094 | -84.83580 | 5929 ft | 284 kts | 122° |
| 2026-05-04 19:51 | 39.28234 | -84.81297 | 5670 ft | 277 kts | 122° |
| 2026-05-04 19:51 | 39.27407 | -84.79100 | 5412 ft | 272 kts | 122° |
| 2026-05-04 19:51 | 39.26590 | -84.76929 | 5158 ft | 267 kts | 120° |
| 2026-05-04 19:51 | 39.25812 | -84.74793 | 4904 ft | 261 kts | 123° |
| 2026-05-04 19:52 | 39.25012 | -84.72730 | 4684 ft | 254 kts | 122° |
| 2026-05-04 19:52 | 39.24233 | -84.70686 | 4414 ft | 248 kts | 122° |
| 2026-05-04 19:52 | 39.23446 | -84.68771 | 4163 ft | 236 kts | 134° |
| 2026-05-04 19:52 | 39.22262 | -84.67458 | 3936 ft | 214 kts | 158° |
| 2026-05-04 19:53 | 39.20917 | -84.66858 | 3668 ft | 200 kts | 178° |
| 2026-05-04 19:53 | 39.19568 | -84.66772 | 3396 ft | 192 kts | 186° |
| 2026-05-04 19:53 | 39.18230 | -84.66805 | 3134 ft | 188 kts | 186° |
| 2026-05-04 19:53 | 39.16945 | -84.66818 | 2903 ft | 178 kts | 186° |
| 2026-05-04 19:54 | 39.15765 | -84.66823 | 2656 ft | 166 kts | 186° |
| 2026-05-04 19:54 | 39.14650 | -84.66827 | 2474 ft | 150 kts | 187° |
| 2026-05-04 19:54 | 39.13645 | -84.66833 | 2454 ft | 139 kts | 187° |
| 2026-05-04 19:54 | 39.12671 | -84.66840 | 2206 ft | 141 kts | 186° |
| 2026-05-04 19:55 | 39.11702 | -84.66842 | 1855 ft | 135 kts | 186° |
| 2026-05-04 19:55 | 39.10751 | -84.66846 | 1682 ft | 137 kts | 186° |
| 2026-05-04 19:55 | 39.09805 | -84.66847 | 1539 ft | 138 kts | 186° |
| 2026-05-04 19:55 | 39.08858 | -84.66851 | 1352 ft | 134 kts | 186° |
| 2026-05-04 19:56 | 39.07917 | -84.66859 | 1163 ft | 134 kts | 185° |
| 2026-05-04 19:56 | 39.06968 | -84.66855 | 1015 ft | 137 kts | 185° |
| 2026-05-04 19:56 | 39.06017 | -84.66857 | 875 ft | 129 kts | 185° |
| 2026-05-04 19:56 | 39.05256 | -84.66867 | 881 ft | 91 kts | 180° |
| 2026-05-04 19:57 | 39.04737 | -84.66869 | 873 ft | 55 kts | 180° |
| 2026-05-04 19:57 | 39.04465 | -84.66869 | 866 ft | 20 kts | 175° |
| 2026-05-04 19:57 | 39.04375 | -84.66825 | 864 ft | 9 kts | 129° |
| 2026-05-04 19:57 | 39.04350 | -84.66753 | 862 ft | 8 kts | 133° |
| 2026-05-04 19:58 | 39.04285 | -84.66730 | 861 ft | 10 kts | 174° |
| 2026-05-04 19:58 | 39.04207 | -84.66730 | 858 ft | 12 kts | 180° |
| 2026-05-04 19:58 | 39.04118 | -84.66731 | 857 ft | 13 kts | 180° |
| 2026-05-04 19:58 | 39.04023 | -84.66732 | 855 ft | 14 kts | 180° |
| 2026-05-04 19:59 | 39.03921 | -84.66732 | 853 ft | 14 kts | 180° |
| 2026-05-04 19:59 | 39.03816 | -84.66733 | 851 ft | 15 kts | 180° |
| 2026-05-04 19:59 | 39.03708 | -84.66734 | 850 ft | 14 kts | 180° |
| 2026-05-04 19:59 | 39.03631 | -84.66732 | 849 ft | 10 kts | 172° |
| 2026-05-04 20:00 | 39.03594 | -84.66685 | 849 ft | 8 kts | 102° |
| 2026-05-04 20:00 | 39.03591 | -84.66612 | 849 ft | 8 kts | 90° |
| 2026-05-04 20:00 | 39.03591 | -84.66528 | 850 ft | 10 kts | 90° |
| 2026-05-04 20:00 | 39.03591 | -84.66432 | 851 ft | 11 kts | 89° |
| 2026-05-04 20:01 | 39.03590 | -84.66332 | 853 ft | 10 kts | 92° |
| 2026-05-04 20:01 | 39.03585 | -84.66245 | 854 ft | 9 kts | 93° |
| 2026-05-04 20:01 | 39.03582 | -84.66170 | 856 ft | 8 kts | 93° |
| 2026-05-04 20:01 | 39.03577 | -84.66074 | 858 ft | 12 kts | 93° |
| 2026-05-04 20:02 | 39.03575 | -84.65951 | 862 ft | 14 kts | 90° |
| 2026-05-04 20:02 | 39.03574 | -84.65812 | 867 ft | 15 kts | 90° |
| 2026-05-04 20:02 | 39.03574 | -84.65692 | 872 ft | 11 kts | 90° |
| 2026-05-04 20:02 | 39.03574 | -84.65602 | 874 ft | 9 kts | 90° |
| 2026-05-04 20:03 | 39.03574 | -84.65524 | 876 ft | 7 kts | 90° |
| 2026-05-04 20:03 | 39.03574 | -84.65465 | 878 ft | 5 kts | 90° |
| 2026-05-04 20:03 | 39.03574 | -84.65426 | 879 ft | 3 kts | 90° |
| 2026-05-04 20:03 | 39.03573 | -84.65385 | 880 ft | 6 kts | 90° |
| 2026-05-04 20:04 | 39.03573 | -84.65315 | 881 ft | 7 kts | 90° |
| 2026-05-04 20:04 | 39.03572 | -84.65252 | 883 ft | 5 kts | 89° |
| 2026-05-04 20:04 | 39.03573 | -84.65208 | 884 ft | 4 kts | 90° |
| 2026-05-04 20:04 | 39.03573 | -84.65160 | 885 ft | 5 kts | 90° |
| 2026-05-04 20:05 | 39.03573 | -84.65102 | 885 ft | 7 kts | 90° |
| 2026-05-04 20:05 | 39.03572 | -84.65031 | 887 ft | 7 kts | 93° |
| 2026-05-04 20:05 | 39.03542 | -84.64995 | 887 ft | 6 kts | 168° |
| 2026-05-04 20:05 | 39.03472 | -84.64994 | 888 ft | 14 kts | 180° |
| 2026-05-04 20:06 | 39.03359 | -84.64994 | 888 ft | 15 kts | 180° |
| 2026-05-04 20:06 | 39.03256 | -84.64995 | 890 ft | 13 kts | 180° |
| 2026-05-04 20:06 | 39.03167 | -84.64995 | 891 ft | 12 kts | 180° |
| 2026-05-04 20:06 | 39.03079 | -84.64996 | 894 ft | 13 kts | 180° |
| 2026-05-04 20:07 | 39.02973 | -84.64996 | 896 ft | 17 kts | 180° |
| 2026-05-04 20:07 | 39.02861 | -84.64997 | 899 ft | 14 kts | 180° |
| 2026-05-04 20:07 | 39.02793 | -84.64998 | 900 ft | 6 kts | 180° |
| 2026-05-04 20:07 | 39.02767 | -84.65012 | 901 ft | 3 kts | 244° |
| 2026-05-04 20:08 | 39.02762 | -84.65044 | 901 ft | 3 kts | 264° |
| 2026-05-04 20:08 | 39.02761 | -84.65081 | 901 ft | 4 kts | 269° |
| 2026-05-04 20:08 | 39.02761 | -84.65099 | 901 ft | 0 kts | 269° |
| 2026-05-04 20:08 | 39.02761 | -84.65100 | 901 ft | 0 kts | 269° |